François Le Roux

Olheiro-Chefe - RC Strasbourg
15 Nov 2026
Domingo
Processo

Personalidade

Adaptabilidade (7) Ambição (1) Controvérsia (12) Lealdade (20) Pressão (2) Profissionalismo (1) Espírito Esportivo (9) Temperamento (13)

Perfil

Estilo de Treinamento Democrático
Licença Continental C
Determinação 13
Gestão de Pessoas 7
Motivação 12
Disciplina 7
Satisfação no Trabalho
50%
Fadiga
0%
Função Olheiro-Chefe
Salário 45.1K p/s
Contrato 14.03.2029

Desempenho

Comportamento Normal
Eficácia do Treinamento
17%
Desenvolvimento do Jogador
35%
Prevenção de Lesões
45%
Implementação Tática
40%

Eventos Recentes

Participou de uma reunião de recrutamento agora
Avaliou um jogador agora
Avaliou um jogador agora
Participou de uma reunião de recrutamento 7d atrás
Avaliou um jogador 7d atrás
Avaliou um jogador 7d atrás
Avaliou um jogador 7d atrás
Avaliou um jogador 7d atrás

Monitorando agora

58
Jogador Clube Status Habilidade Confiança Observado Última observação Último voto
Assane Diao Como Ativo 140 / 141 40% 2 14.11.2026 -
Talles Magno New York City Ativo 116 / 125 40% 1 14.11.2026 -
Mao Hosoya Olympique de Marseille Ativo 126 / 136 40% 3 11.11.2026 -
Rafael Leão Galatasaray Ativo 146 / 158 40% 2 11.11.2026 -
Kasper Høgh Bloemfontein Celtic Ativo 117 / 145 40% 3 10.11.2026 -
Igor Paixão Olympique de Marseille Ativo 141 / 144 40% 1 10.11.2026 -
Cristian Uribe Monaco Ativo 157 / 149 40% 1 10.11.2026 -
Vanderson Monaco Ativo 146 / 147 40% 1 10.11.2026 -
Dango Ouattara Brentford Ativo 144 / 143 40% 2 08.11.2026 -
Marcelo Flores Tigres Ativo 109 / 134 40% 2 08.11.2026 -
Laurent Lacroix Chamois Niortais Ativo 117 / 122 40% 2 07.11.2026 -
Cody Gakpo Liverpool Ativo 147 / 156 40% 1 06.11.2026 -
Itumeleng Vilakazi Platinum Stars Ativo 111 / 101 40% 1 06.11.2026 -
Óscar Mingueza Crystal Palace Ativo 159 / 148 40% 1 06.11.2026 -
Conor Bradley Liverpool Ativo 161 / 158 40% 1 06.11.2026 -
Alejandro Piedrahita Deportivo Pereira Ativo 118 / 116 40% 3 02.11.2026 -
Eddie Nketiah Crystal Palace Ativo 128 / 137 40% 1 02.11.2026 -
Peter Valjent FK Senica Ativo 127 / 131 40% 1 31.10.2026 -
Tanner Tessmann Angers SCO Ativo 146 / 139 40% 1 31.10.2026 -
Manu Koné AS Roma Ativo 170 / 169 40% 1 31.10.2026 -
Lewis Hall Newcastle United Ativo 139 / 143 40% 1 30.10.2026 -
Leander Kompany KV Oostende Ativo 135 / 124 40% 1 30.10.2026 -
Afimico Pululu Al-Hazem Ativo 125 / 133 40% 1 28.10.2026 -
Freddie Potts Club Brugge Ativo 124 / 139 40% 1 28.10.2026 -
Yehor Yarmoliuk Brentford Ativo 148 / 150 40% 1 28.10.2026 -
Ryotaro Araki Sint-Truiden Ativo 120 / 112 40% 1 26.10.2026 -
Iliman N'Diaye Everton Ativo 154 / 161 40% 2 25.10.2026 -
Esteban Lepaul Stade Rennais Ativo 150 / 132 40% 1 25.10.2026 -
Timothy Fellaini KV Oostende Ativo 136 / 129 40% 1 25.10.2026 -
Adam Wharton Crystal Palace Ativo 158 / 159 40% 1 25.10.2026 -
Tyler Morton Olympique Lyonnais Rejeitado 155 / 143 40% 2 24.10.2026 Mais informações
Timothy Witsel FC Metz Ativo 125 / 126 40% 1 24.10.2026 -
Pedro Porro Tottenham Ativo 149 / 140 40% 1 22.10.2026 -
Nicolas Jackson Aston Villa Ativo 150 / 150 40% 1 20.10.2026 -
Myron van Brederode KV Mechelen Ativo 123 / 130 40% 1 20.10.2026 -
Lois Vanaken KV Oostende Ativo 148 / 137 40% 2 19.10.2026 -
Pau Víctor Braga Ativo 132 / 134 40% 1 19.10.2026 -
Aune Heggebø West Bromwich Albion Ativo 131 / 129 40% 1 18.10.2026 -
Camilo Durán Bloemfontein Celtic Ativo 124 / 124 40% 1 17.10.2026 -
Danylo Sikan Anderlecht Ativo 129 / 121 40% 2 16.10.2026 -
Sébastien Fabre Chamois Niortais Ativo 167 / 163 40% 1 16.10.2026 -
Roberto Fernández Braga Ativo 139 / 139 40% 2 15.10.2026 -
Justo Giani Umraniyespor Ativo 137 / 116 40% 1 15.10.2026 -
Moctar Diop KAA Gent Ativo 104 / 125 40% 1 14.10.2026 -
Fernand Gouré Westerlo Ativo 112 / 111 40% 1 12.10.2026 -
Jefry Zapata Once Caldas Ativo 116 / 124 40% 1 12.10.2026 -
Shandre Campbell KV Kortrijk Ativo 104 / 125 40% 2 11.10.2026 -
Felipe Augusto Zenit Ativo 149 / 147 40% 1 11.10.2026 -
Germán Berterame Inter Miami CF Ativo 123 / 144 40% 1 10.10.2026 -
Ramiro Ruiz Rodríguez Atlético Tucumán Ativo 127 / 116 40% 1 09.10.2026 -
Amadou Onana Aston Villa Ativo 162 / 153 40% 1 09.10.2026 -
Riccardo Calafiori Arsenal Ativo 150 / 151 40% 1 09.10.2026 -
Quinten Timber Crystal Palace Ativo 158 / 145 40% 1 06.10.2026 -
Mats Wieffer Brighton Ativo 140 / 147 40% 1 06.10.2026 -
Arthur Avom Ebong FC Lorient Ativo 128 / 125 55% 1 31.08.2026 -
Luck Zogbé Stade Brestois Ativo 123 / 112 55% 1 17.08.2026 -
Nicolò Tresoldi Club Brugge Ativo 140 / 126 40% 1 01.08.2026 -
Diego Rossi Monterrey Negociando 145 / 138 40% 1 01.08.2026 -